Aeroporto :
LOGIN :

Iscrizione | Disclaimer

   EN    FR    IT 

 










Sommario :    VFR   VFR Marginale   IFR   IFR Intensivo   IFR Molto Intensivo
Visibilità : 
Base nubi : 
>= 8 km
>= 3000ft
5 / 8 km
1000 / 3000 ft
1500m / 5 km
500 / 1000 ft
800 / 1500m
200 / 500 ft
< 800m
< 200 ft
Simboli :   Temporali  Nebbia  Neve Forte  Precipitazioni Forti  Vento > 20 kt
SIGMETs :   Varie  Temporali  Ghiacco  Turbolenza  Onda orograficha  Ceneri Vulcaniche






- Altitudine del aeroporto : 308 ft


ESIA - Karlsborg Air Base

ULTIMO METAR :
  • 200420Z AUTO 08003KT 040V140 5000 -SHRA VV002 05/04 Q1020

METARs OBSOLETI :
  • 200350Z AUTO 00000KT 3600 -SHRA BR VV005 05/04 Q1019
  • 200320Z AUTO 00000KT 2600 -SHRA BR NCD 05/04 Q1019
  • 200250Z AUTO 00000KT 2900 -RA BR FEW001/// SCT023/// 05/04 Q1019
  • 200220Z AUTO VRB02KT 4300 -RA BR VV018 05/04 Q1018
  • 200150Z AUTO VRB02KT 2900 -RA VV022 05/04 Q1018

Previsioni scadute.



MetMap, La meteo Aeronautica in un colpo d'occhio ! - Copyright ORBIFLY Dicembre 2007 - Disclaimer

ORBIFLY MET'MAP TEAM :

Programmazione e sviluppo : Alexandra Zaïnal
Concezione e sviluppo : Baudouin d'Aumeries
Co-Programmazione e sviluppo : Marc-Olivier Méhu
Supporto tecnico e logistico : Manuel Goepfert
Aiuto per la traduzione : Arnaldo La Scala

Contatto : metmap@orbifly.com




FONTI E CREDITI :

   NOAA